Time;durP1;ratioP1;P1;durP2;ratioP2;P2;SDS_P1;SDS_P2;PMS_P1;PMS_P2;Temp;Humidity;BMP_temperature;BMP_pressure;BME280_temperature;BME280_humidity;BME280_pressure;Samples;Min_cycle;Max_cycle;Signal;HPM_P1;HPM_P2
2023/06/08 00:01:35;;;;;;;;;;;;;;;14.78;99.94;95214.53;4977691;28;1064;-50
2023/06/08 00:04:05;;;;;;;;;;;;;;;14.98;99.04;95204.84;4977852;28;1094;-50
2023/06/08 00:06:33;;;;;;;;;;;;;;;15.28;97.23;95202.13;4977914;28;998;-50
2023/06/08 00:09:01;;;;;;;;;;;;;;;15.38;96.51;95204.50;4977906;28;1057;-50
2023/06/08 00:11:28;;;;;;;;;;;;;;;15.09;98.02;95198.16;4977899;28;960;-50
2023/06/08 00:13:54;;;;;;;;;;;;;;;15.07;97.96;95202.91;4977904;28;1048;-50
2023/06/08 00:16:21;;;;;;;;;;;;;;;15.25;97.01;95198.97;4977387;28;1053;-50
2023/06/08 00:18:49;;;;;;;;;;;;;;;15.32;95.81;95206.09;4960425;28;1997;-50
2023/06/08 00:21:16;;;;;;;;;;;;;;;15.30;96.21;95205.44;4977736;28;956;-50
2023/06/08 00:23:42;;;;;;;;;;;;;;;15.10;96.89;95201.66;4977286;28;1372;-50
2023/06/08 00:26:08;;;;;;;;;;;;;;;15.00;97.76;95202.78;4977688;28;1048;-50
2023/06/08 00:28:34;;;;;;;;;;;;;;;15.08;97.12;95199.19;4977621;28;1054;-50
2023/06/08 00:31:00;;;;;;;;;;;;;;;14.97;97.00;95200.50;4977580;28;1021;-50
2023/06/08 00:33:26;;;;;;;;;;;;;;;14.88;97.98;95193.53;4977522;28;1034;-50
2023/06/08 00:35:54;;;;;;;;;;;;;;;14.84;98.71;95194.94;4977477;28;1055;-50
2023/06/08 00:38:20;;;;;;;;;;;;;;;15.04;97.53;95192.47;4977100;28;1984;-50
2023/06/08 00:40:46;;;;;;;;;;;;;;;15.06;97.05;95195.00;4977257;28;1044;-50
2023/06/08 00:43:12;;;;;;;;;;;;;;;14.94;97.26;95195.47;4977076;28;987;-50
2023/06/08 00:45:38;;;;;;;;;;;;;;;14.80;97.74;95202.53;4977242;28;1098;-50
2023/06/08 00:48:05;;;;;;;;;;;;;;;14.69;98.91;95211.06;4977027;28;1988;-50
2023/06/08 00:50:31;;;;;;;;;;;;;;;14.67;98.73;95204.22;4977248;28;1288;-50
2023/06/08 00:52:58;;;;;;;;;;;;;;;14.79;98.70;95208.94;4977012;28;1063;-50
2023/06/08 00:55:25;;;;;;;;;;;;;;;14.98;97.44;95207.53;4976884;28;1028;-50
2023/06/08 00:57:51;;;;;;;;;;;;;;;14.98;97.99;95206.69;4976771;28;1907;-50
2023/06/08 01:00:17;;;;;;;;;;;;;;;14.88;97.88;95214.25;4976808;28;1026;-50
2023/06/08 01:02:43;;;;;;;;;;;;;;;14.79;98.10;95208.09;4976989;28;1035;-50
2023/06/08 01:05:12;;;;;;;;;;;;;;;14.63;99.96;95203.75;4976898;28;1035;-50
2023/06/08 01:07:48;;;;;;;;;;;;;;;14.73;98.96;95201.59;4975918;28;1033;-50
2023/06/08 01:10:25;;;;;;;;;;;;;;;14.94;97.92;95205.41;4976626;28;1040;-50
2023/06/08 01:12:57;;;;;;;;;;;;;;;15.06;97.15;95205.75;4976921;28;1058;-50
2023/06/08 01:15:31;;;;;;;;;;;;;;;14.96;96.99;95201.50;4976449;28;1054;-50
2023/06/08 01:18:04;;;;;;;;;;;;;;;14.91;97.55;95192.31;4976581;28;1906;-50
2023/06/08 01:20:32;;;;;;;;;;;;;;;14.95;97.30;95197.16;4976273;28;1339;-50
2023/06/08 01:23:03;;;;;;;;;;;;;;;14.81;97.04;95198.81;4976446;28;1042;-50
2023/06/08 01:25:31;;;;;;;;;;;;;;;14.51;98.69;95191.72;4976134;28;1899;-50
2023/06/08 01:27:58;;;;;;;;;;;;;;;14.60;98.85;95196.03;4976595;28;1060;-49
2023/06/08 01:30:25;;;;;;;;;;;;;;;14.53;98.55;95201.31;4976241;28;1018;-50
2023/06/08 01:32:51;;;;;;;;;;;;;;;14.49;98.31;95199.97;4976527;28;860;-50
2023/06/08 01:35:17;;;;;;;;;;;;;;;14.60;97.75;95191.47;4976087;28;1137;-50
2023/06/08 01:37:47;;;;;;;;;;;;;;;14.59;98.09;95197.91;4976056;28;1910;-50
2023/06/08 01:40:18;;;;;;;;;;;;;;;14.73;96.74;95200.78;4976311;28;1339;-49
2023/06/08 01:42:47;;;;;;;;;;;;;;;14.79;96.16;95200.03;4976262;28;995;-50
2023/06/08 01:45:18;;;;;;;;;;;;;;;14.71;96.66;95192.06;4976144;28;1033;-50
2023/06/08 01:47:49;;;;;;;;;;;;;;;14.64;97.27;95194.63;4976233;28;1039;-49
2023/06/08 01:50:17;;;;;;;;;;;;;;;14.67;96.56;95185.38;4975759;28;1167;-50
2023/06/08 01:52:43;;;;;;;;;;;;;;;14.62;96.33;95186.75;4975890;28;1101;-50
2023/06/08 01:55:20;;;;;;;;;;;;;;;14.53;97.70;95184.31;4958911;28;976;-50
2023/06/08 01:57:46;;;;;;;;;;;;;;;14.52;98.21;95185.34;4975699;28;1989;-50
2023/06/08 02:00:14;;;;;;;;;;;;;;;14.53;98.04;95193.22;4975479;28;1109;-50
2023/06/08 02:02:40;;;;;;;;;;;;;;;14.44;97.79;95188.97;4958544;28;1261;-49
2023/06/08 02:05:08;;;;;;;;;;;;;;;14.18;98.54;95189.38;4975955;28;983;-50
2023/06/08 02:07:34;;;;;;;;;;;;;;;14.11;98.34;95193.81;4975702;28;1085;-50
2023/06/08 02:10:00;;;;;;;;;;;;;;;14.20;98.81;95200.78;4975717;28;979;-50
2023/06/08 02:12:26;;;;;;;;;;;;;;;14.20;98.91;95196.22;4975759;28;968;-50
2023/06/08 02:14:52;;;;;;;;;;;;;;;14.31;98.19;95192.28;4975626;28;994;-49
2023/06/08 02:17:26;;;;;;;;;;;;;;;14.29;99.37;95191.63;4974912;28;1899;-49
2023/06/08 02:19:56;;;;;;;;;;;;;;;14.40;99.09;95185.78;4975362;28;1238;-49
2023/06/08 02:22:23;;;;;;;;;;;;;;;14.40;98.53;95190.34;4975164;28;1089;-50
2023/06/08 02:24:49;;;;;;;;;;;;;;;14.49;98.97;95189.22;4975336;28;1400;-50
2023/06/08 02:27:15;;;;;;;;;;;;;;;14.51;99.17;95197.94;4975397;28;1026;-49
2023/06/08 02:29:41;;;;;;;;;;;;;;;14.64;98.44;95197.34;4975162;28;968;-50
2023/06/08 02:32:08;;;;;;;;;;;;;;;14.58;97.22;95198.91;4975114;28;1046;-52
2023/06/08 02:34:36;;;;;;;;;;;;;;;14.50;97.22;95195.47;4975040;28;1968;-52
2023/06/08 02:37:03;;;;;;;;;;;;;;;14.42;96.67;95193.69;4975263;28;1915;-52
2023/06/08 02:39:29;;;;;;;;;;;;;;;14.13;98.55;95197.13;4974905;28;1038;-52
2023/06/08 02:41:55;;;;;;;;;;;;;;;13.88;100.00;95191.16;4975122;28;1070;-52
2023/06/08 02:44:21;;;;;;;;;;;;;;;13.90;100.00;95202.56;4974802;28;1034;-52
2023/06/08 02:46:47;;;;;;;;;;;;;;;14.06;100.00;95192.50;4975151;28;979;-52
2023/06/08 02:49:13;;;;;;;;;;;;;;;14.19;99.39;95196.41;4974990;28;994;-52
2023/06/08 02:51:40;;;;;;;;;;;;;;;14.04;98.90;95199.09;4975058;28;971;-52
2023/06/08 02:54:06;;;;;;;;;;;;;;;13.97;99.64;95200.81;4975097;28;1063;-52
2023/06/08 02:56:32;;;;;;;;;;;;;;;13.99;99.10;95206.84;4974761;28;1055;-51
2023/06/08 02:58:58;;;;;;;;;;;;;;;14.06;98.98;95205.13;4974723;28;1918;-52
2023/06/08 03:01:25;;;;;;;;;;;;;;;14.13;98.30;95199.84;4974479;28;1043;-52
2023/06/08 03:03:51;;;;;;;;;;;;;;;14.18;97.89;95214.41;4974687;28;1043;-52
2023/06/08 03:06:18;;;;;;;;;;;;;;;14.27;97.49;95211.66;4974706;28;1037;-52
2023/06/08 03:08:57;;;;;;;;;;;;;;;14.29;97.40;95209.63;4974708;28;1010;-52
2023/06/08 03:11:23;;;;;;;;;;;;;;;14.06;98.75;95215.88;4974652;28;968;-52
2023/06/08 03:13:49;;;;;;;;;;;;;;;13.84;99.61;95213.00;4974778;28;1239;-52
2023/06/08 03:16:15;;;;;;;;;;;;;;;13.86;99.89;95207.44;4974748;28;1026;-52
2023/06/08 03:18:44;;;;;;;;;;;;;;;13.79;100.00;95207.34;4974155;28;1993;-52
2023/06/08 03:21:12;;;;;;;;;;;;;;;13.89;100.00;95212.47;4974616;28;1009;-52
2023/06/08 03:23:38;;;;;;;;;;;;;;;14.00;99.54;95216.56;4974202;28;1357;-52
2023/06/08 03:26:05;;;;;;;;;;;;;;;14.19;98.94;95213.41;4974291;28;1123;-52
2023/06/08 03:28:31;;;;;;;;;;;;;;;14.13;98.75;95222.16;4974481;28;1044;-52
2023/06/08 03:30:57;;;;;;;;;;;;;;;14.19;99.21;95215.22;4977465;28;1043;-52
2023/06/08 03:33:24;;;;;;;;;;;;;;;14.36;97.67;95226.66;4978531;28;964;-52
2023/06/08 03:35:50;;;;;;;;;;;;;;;14.46;97.44;95219.19;4978517;28;1014;-52
2023/06/08 03:38:16;;;;;;;;;;;;;;;14.29;98.76;95215.00;4978419;28;1999;-52
2023/06/08 03:40:42;;;;;;;;;;;;;;;14.14;99.40;95223.84;4978566;28;1014;-52
2023/06/08 03:43:08;;;;;;;;;;;;;;;14.22;100.00;95226.47;4978350;28;972;-52
2023/06/08 03:45:34;;;;;;;;;;;;;;;14.34;99.62;95228.72;4978375;28;1395;-52
2023/06/08 03:48:00;;;;;;;;;;;;;;;14.51;99.35;95219.47;4978288;28;982;-52
2023/06/08 03:50:26;;;;;;;;;;;;;;;14.62;98.30;95219.03;4976642;28;2609;-52
2023/06/08 03:52:52;;;;;;;;;;;;;;;14.79;97.77;95221.56;4978018;28;1047;-52
2023/06/08 03:55:18;;;;;;;;;;;;;;;14.92;96.58;95219.06;4977956;28;1032;-52
2023/06/08 03:57:45;;;;;;;;;;;;;;;15.15;96.24;95220.81;4978137;28;2015;-52
2023/06/08 04:00:11;;;;;;;;;;;;;;;15.26;97.25;95223.00;4977800;28;1094;-52
2023/06/08 04:02:38;;;;;;;;;;;;;;;15.27;97.75;95226.53;4977799;28;1110;-52
2023/06/08 04:05:06;;;;;;;;;;;;;;;15.30;97.38;95218.91;4977788;28;1117;-52
2023/06/08 04:07:34;;;;;;;;;;;;;;;15.51;97.03;95228.06;4977928;28;1044;-52
2023/06/08 04:10:01;;;;;;;;;;;;;;;15.84;96.15;95227.63;4977995;28;970;-52
2023/06/08 04:12:27;;;;;;;;;;;;;;;15.98;96.16;95234.81;4977462;28;1094;-53
2023/06/08 04:14:53;;;;;;;;;;;;;;;16.24;94.62;95238.78;4977595;28;1098;-53
2023/06/08 04:17:19;;;;;;;;;;;;;;;16.32;95.41;95239.50;4977629;28;1993;-53
2023/06/08 04:19:45;;;;;;;;;;;;;;;16.25;97.03;95243.16;4977408;28;1269;-53
2023/06/08 04:22:11;;;;;;;;;;;;;;;16.22;97.25;95240.84;4977663;28;982;-53
2023/06/08 04:24:38;;;;;;;;;;;;;;;16.25;96.83;95235.91;4977257;28;1664;-53
2023/06/08 04:27:05;;;;;;;;;;;;;;;16.23;97.38;95245.22;4977567;28;1006;-53
2023/06/08 04:29:31;;;;;;;;;;;;;;;16.35;97.91;95244.50;4977349;28;1128;-53
2023/06/08 04:31:58;;;;;;;;;;;;;;;16.56;97.56;95250.88;4977606;28;970;-53
2023/06/08 04:34:24;;;;;;;;;;;;;;;16.65;98.01;95244.31;4977262;28;984;-53
2023/06/08 04:36:50;;;;;;;;;;;;;;;16.78;97.67;95246.28;4977528;28;1224;-53
2023/06/08 04:39:16;;;;;;;;;;;;;;;16.90;96.61;95241.19;4977381;28;1906;-53
2023/06/08 04:41:45;;;;;;;;;;;;;;;16.92;94.98;95245.38;4977079;28;1058;-53
2023/06/08 04:44:13;;;;;;;;;;;;;;;16.96;95.40;95245.81;4977029;28;1046;-52
2023/06/08 04:46:41;;;;;;;;;;;;;;;17.22;93.02;95245.09;4977235;28;963;-52
2023/06/08 04:49:09;;;;;;;;;;;;;;;17.50;91.85;95238.81;4977116;28;1198;-53
2023/06/08 04:51:39;;;;;;;;;;;;;;;17.28;93.06;95246.19;4977056;28;1039;-53
2023/06/08 04:54:05;;;;;;;;;;;;;;;17.13;95.09;95244.47;4977036;28;1073;-52
2023/06/08 04:56:33;;;;;;;;;;;;;;;17.19;95.69;95245.53;4977044;28;1010;-53
2023/06/08 04:58:59;;;;;;;;;;;;;;;17.35;94.29;95244.34;4977115;28;2053;-53
2023/06/08 05:01:26;;;;;;;;;;;;;;;17.29;95.29;95237.88;4976886;28;1029;-53
2023/06/08 05:03:52;;;;;;;;;;;;;;;17.11;95.09;95248.38;4976750;28;1026;-53
2023/06/08 05:06:18;;;;;;;;;;;;;;;16.92;96.69;95242.69;4976767;28;1035;-53
2023/06/08 05:08:45;;;;;;;;;;;;;;;16.83;97.85;95251.97;4976666;28;1180;-53
2023/06/08 05:11:11;;;;;;;;;;;;;;;16.90;97.78;95243.88;4976876;28;1010;-53
2023/06/08 05:13:37;;;;;;;;;;;;;;;16.91;96.86;95249.09;4976872;28;1238;-53
2023/06/08 05:16:04;;;;;;;;;;;;;;;16.99;96.59;95258.91;4976880;28;968;-53
2023/06/08 05:18:30;;;;;;;;;;;;;;;17.12;97.62;95256.28;4976428;28;1906;-55
2023/06/08 05:20:56;;;;;;;;;;;;;;;17.18;95.91;95251.94;4976758;28;1037;-53
2023/06/08 05:23:22;;;;;;;;;;;;;;;17.27;94.49;95255.34;4976200;28;1693;-53
2023/06/08 05:25:48;;;;;;;;;;;;;;;17.23;95.75;95251.38;4976567;28;1534;-53
2023/06/08 05:28:14;;;;;;;;;;;;;;;17.19;93.98;95253.63;4976581;28;1054;-53
2023/06/08 05:30:40;;;;;;;;;;;;;;;17.08;94.56;95251.50;4976629;28;1047;-53
2023/06/08 05:33:06;;;;;;;;;;;;;;;17.18;95.07;95255.47;4976287;28;1058;-53
2023/06/08 05:35:32;;;;;;;;;;;;;;;17.31;94.75;95254.72;4976256;28;1054;-53
2023/06/08 05:37:58;;;;;;;;;;;;;;;17.30;93.47;95261.19;4976117;28;2017;-53
2023/06/08 05:40:24;;;;;;;;;;;;;;;17.45;93.83;95265.59;4976032;28;1571;-53
2023/06/08 05:42:50;;;;;;;;;;;;;;;17.62;92.69;95247.97;4976265;28;994;-53
2023/06/08 05:45:16;;;;;;;;;;;;;;;17.81;91.39;95253.66;4975905;28;2143;-53
2023/06/08 05:47:42;;;;;;;;;;;;;;;17.90;89.60;95255.19;4976016;28;1070;-53
2023/06/08 05:50:09;;;;;;;;;;;;;;;18.00;88.39;95249.38;4975907;28;1053;-53
2023/06/08 05:52:35;;;;;;;;;;;;;;;17.93;89.63;95250.19;4975642;28;978;-53
2023/06/08 05:55:01;;;;;;;;;;;;;;;18.01;88.93;95251.88;4976168;28;982;-53
2023/06/08 05:57:27;;;;;;;;;;;;;;;18.29;87.97;95250.91;4975180;28;1907;-53
2023/06/08 05:59:53;;;;;;;;;;;;;;;18.42;87.67;95245.50;4975672;28;1074;-53
2023/06/08 06:02:19;;;;;;;;;;;;;;;18.55;87.91;95247.34;4975503;28;1869;-53
2023/06/08 06:04:45;;;;;;;;;;;;;;;18.52;87.55;95239.66;4975952;28;1331;-52
2023/06/08 06:07:11;;;;;;;;;;;;;;;18.78;87.92;95244.22;4975550;28;1002;-53
2023/06/08 06:09:37;;;;;;;;;;;;;;;18.62;89.60;95240.06;4975835;28;998;-53
2023/06/08 06:12:04;;;;;;;;;;;;;;;18.44;88.08;95237.13;4975754;28;1059;-53
2023/06/08 06:14:40;;;;;;;;;;;;;;;18.43;88.79;95230.91;4975297;28;1888;-53
2023/06/08 06:17:06;;;;;;;;;;;;;;;18.52;90.37;95232.38;4975338;28;1101;-53
2023/06/08 06:19:39;;;;;;;;;;;;;;;18.90;88.06;95239.84;4975167;28;1225;-53
2023/06/08 06:22:06;;;;;;;;;;;;;;;19.13;86.92;95238.56;4975452;28;1058;-53
2023/06/08 06:24:32;;;;;;;;;;;;;;;19.00;88.33;95233.19;4973933;28;2620;-53
2023/06/08 06:26:58;;;;;;;;;;;;;;;19.04;87.98;95234.41;4975324;28;1059;-53
2023/06/08 06:29:24;;;;;;;;;;;;;;;19.29;86.75;95227.28;4975029;28;1066;-53
2023/06/08 06:31:50;;;;;;;;;;;;;;;19.83;84.94;95237.94;4975461;28;1058;-52
2023/06/08 06:34:19;;;;;;;;;;;;;;;20.49;82.20;95233.94;4975359;28;1066;-53
2023/06/08 06:36:45;;;;;;;;;;;;;;;20.97;80.99;95236.06;4975327;28;1031;-53
2023/06/08 06:39:12;;;;;;;;;;;;;;;21.28;76.38;95236.97;4975019;28;1997;-53
2023/06/08 06:41:38;;;;;;;;;;;;;;;21.19;77.92;95227.47;4975256;28;1051;-53
2023/06/08 06:44:05;;;;;;;;;;;;;;;21.45;76.86;95231.81;4957873;28;995;-53
2023/06/08 06:46:31;;;;;;;;;;;;;;;21.62;75.57;95232.84;4975139;28;1018;-53
2023/06/08 06:48:58;;;;;;;;;;;;;;;21.95;75.30;95225.31;4974822;28;1055;-53
2023/06/08 06:51:25;;;;;;;;;;;;;;;21.89;74.35;95215.34;4975040;28;988;-53
2023/06/08 06:53:51;;;;;;;;;;;;;;;22.13;73.75;95213.56;4974974;28;966;-53
2023/06/08 06:56:17;;;;;;;;;;;;;;;22.06;73.33;95213.63;4974965;28;1017;-53
2023/06/08 06:58:46;;;;;;;;;;;;;;;22.14;74.49;95217.94;4974652;28;1894;-52
2023/06/08 07:01:12;;;;;;;;;;;;;;;22.44;74.20;95214.38;4974713;28;1032;-53
2023/06/08 07:03:42;;;;;;;;;;;;;;;22.66;71.90;95218.22;4974668;28;959;-53
2023/06/08 07:06:09;;;;;;;;;;;;;;;22.90;71.21;95210.06;4974422;28;984;-53
2023/06/08 07:08:35;;;;;;;;;;;;;;;22.71;70.92;95212.88;4974685;28;1053;-53
2023/06/08 07:11:01;;;;;;;;;;;;;;;22.48;71.99;95210.13;4974761;28;1039;-53
2023/06/08 07:13:28;;;;;;;;;;;;;;;22.53;73.44;95210.25;4974496;28;1054;-53
2023/06/08 07:15:54;;;;;;;;;;;;;;;22.60;74.58;95205.53;4974822;28;1105;-53
2023/06/08 07:18:20;;;;;;;;;;;;;;;22.81;70.86;95207.66;4974422;28;1984;-53
2023/06/08 07:20:46;;;;;;;;;;;;;;;22.81;70.51;95209.56;4974310;28;1214;-53
2023/06/08 07:23:12;;;;;;;;;;;;;;;22.78;69.09;95202.72;4974199;28;1416;-53
2023/06/08 07:25:38;;;;;;;;;;;;;;;22.96;71.60;95190.84;4974513;28;1591;-53
2023/06/08 07:28:05;;;;;;;;;;;;;;;23.45;70.90;95189.72;4974413;28;1054;-53
2023/06/08 07:30:34;;;;;;;;;;;;;;;23.26;68.82;95192.63;4974332;28;1034;-53
2023/06/08 07:33:01;;;;;;;;;;;;;;;23.46;69.39;95189.50;4974601;28;972;-53
2023/06/08 07:35:27;;;;;;;;;;;;;;;23.57;67.32;95188.63;4973873;28;2364;-53
2023/06/08 07:37:53;;;;;;;;;;;;;;;23.75;65.93;95192.25;4973855;28;2853;-53
2023/06/08 07:40:19;;;;;;;;;;;;;;;23.94;68.22;95190.19;4974526;28;1029;-53
2023/06/08 07:42:46;;;;;;;;;;;;;;;24.08;67.29;95193.47;4974414;28;1034;-53
2023/06/08 07:45:12;;;;;;;;;;;;;;;24.26;63.81;95192.41;4974193;28;1101;-53
2023/06/08 07:47:39;;;;;;;;;;;;;;;23.97;67.01;95193.25;4974267;28;982;-52
2023/06/08 07:50:09;;;;;;;;;;;;;;;24.36;65.16;95190.72;4974109;28;1122;-53
2023/06/08 07:52:35;;;;;;;;;;;;;;;24.47;64.46;95196.34;4957332;28;1030;-53
2023/06/08 07:55:01;;;;;;;;;;;;;;;24.52;63.27;95188.25;4974515;28;1054;-53
2023/06/08 07:57:27;;;;;;;;;;;;;;;24.91;64.66;95182.88;4974082;28;1906;-53
2023/06/08 07:59:53;;;;;;;;;;;;;;;24.92;62.35;95187.25;4974147;28;990;-54
2023/06/08 08:02:20;;;;;;;;;;;;;;;24.85;63.29;95178.38;4973897;28;1034;-53
2023/06/08 08:04:46;;;;;;;;;;;;;;;25.04;63.46;95177.06;4974235;28;1051;-53
2023/06/08 08:07:12;;;;;;;;;;;;;;;24.94;64.18;95174.97;4955789;28;2956;-54
2023/06/08 08:09:41;;;;;;;;;;;;;;;24.99;63.36;95166.03;4973992;28;1063;-54
2023/06/08 08:12:10;;;;;;;;;;;;;;;24.85;62.22;95164.72;4973981;28;1038;-54
2023/06/08 08:14:37;;;;;;;;;;;;;;;24.97;60.71;95164.63;4973909;28;1051;-54
2023/06/08 08:17:03;;;;;;;;;;;;;;;25.24;59.11;95162.84;4976651;28;1043;-54
2023/06/08 08:19:30;;;;;;;;;;;;;;;25.36;57.26;95161.91;4977257;28;1906;-54
2023/06/08 08:21:56;;;;;;;;;;;;;;;25.47;58.25;95161.78;4977446;28;1071;-54
2023/06/08 08:24:22;;;;;;;;;;;;;;;25.56;58.96;95153.94;4977249;28;1757;-54
2023/06/08 08:26:52;;;;;;;;;;;;;;;25.31;55.12;95157.22;4960422;28;971;-54
2023/06/08 08:29:18;;;;;;;;;;;;;;;25.41;54.15;95157.31;4977405;28;1097;-54
2023/06/08 08:31:44;;;;;;;;;;;;;;;25.44;56.41;95151.34;4977594;28;1329;-54
2023/06/08 08:34:11;;;;;;;;;;;;;;;25.82;55.85;95149.59;4977206;28;1110;-55
2023/06/08 08:36:38;;;;;;;;;;;;;;;25.57;53.31;95143.81;4977177;28;1086;-54
2023/06/08 08:39:04;;;;;;;;;;;;;;;25.84;59.73;95144.69;4976137;28;3112;-54
2023/06/08 08:41:31;;;;;;;;;;;;;;;26.09;57.65;95141.41;4977190;28;977;-54
2023/06/08 08:44:01;;;;;;;;;;;;;;;26.16;54.94;95143.97;4977212;28;1030;-54
2023/06/08 08:46:29;;;;;;;;;;;;;;;26.07;56.23;95142.78;4977246;28;980;-54
2023/06/08 08:49:00;;;;;;;;;;;;;;;26.19;55.26;95135.19;4960093;28;1038;-54
2023/06/08 08:51:28;;;;;;;;;;;;;;;26.34;55.78;95131.78;4975830;28;2820;-54
2023/06/08 08:53:55;;;;;;;;;;;;;;;26.39;53.44;95133.72;4977224;28;1034;-54
2023/06/08 08:56:22;;;;;;;;;;;;;;;26.47;56.38;95125.84;4976929;28;980;-54
2023/06/08 08:58:50;;;;;;;;;;;;;;;26.48;55.38;95126.69;4976811;28;1991;-53
2023/06/08 09:01:20;;;;;;;;;;;;;;;26.55;54.12;95134.69;4977044;28;1044;-54
2023/06/08 09:03:46;;;;;;;;;;;;;;;26.80;54.72;95123.13;4976766;28;1078;-54
2023/06/08 09:06:13;;;;;;;;;;;;;;;26.74;53.26;95119.50;4976779;28;970;-54
2023/06/08 09:08:39;;;;;;;;;;;;;;;26.54;50.48;95127.53;4976716;28;2057;-54
2023/06/08 09:11:07;;;;;;;;;;;;;;;26.39;51.48;95123.59;4976691;28;1121;-54
2023/06/08 09:13:34;;;;;;;;;;;;;;;26.54;54.24;95119.31;4976468;28;1101;-54
2023/06/08 09:16:17;;;;;;;;;;;;;;;26.46;52.35;95112.41;4976892;28;1010;-54
2023/06/08 09:18:43;;;;;;;;;;;;;;;26.48;52.09;95123.94;4976389;28;1922;-55
2023/06/08 09:21:18;;;;;;;;;;;;;;;26.58;52.92;95110.31;4976705;28;1057;-54
2023/06/08 09:23:45;;;;;;;;;;;;;;;26.73;53.23;95114.28;4976585;28;1697;-54
2023/06/08 09:26:13;;;;;;;;;;;;;;;26.47;50.92;95114.06;4976493;28;1034;-54
2023/06/08 09:28:39;;;;;;;;;;;;;;;26.28;50.04;95113.66;4975457;28;1161;-53
2023/06/08 09:31:08;;;;;;;;;;;;;;;26.44;52.67;95106.38;4976464;28;1062;-54
2023/06/08 09:33:34;;;;;;;;;;;;;;;26.44;52.95;95103.63;4976269;28;970;-54
2023/06/08 09:36:01;;;;;;;;;;;;;;;26.52;51.83;95105.88;4976188;28;1058;-56
2023/06/08 09:38:28;;;;;;;;;;;;;;;26.80;54.33;95093.75;4975977;28;1930;-56
2023/06/08 09:41:11;;;;;;;;;;;;;;;27.11;53.71;95098.59;4976123;28;1880;-56
2023/06/08 09:43:38;;;;;;;;;;;;;;;27.25;53.35;95092.38;4976268;28;1043;-53
2023/06/08 09:46:04;;;;;;;;;;;;;;;27.29;55.27;95078.97;4976018;28;1575;-53
2023/06/08 09:48:30;;;;;;;;;;;;;;;27.47;53.08;95088.66;4958742;28;1078;-53
2023/06/08 09:50:59;;;;;;;;;;;;;;;27.26;52.63;95082.22;4975920;28;920;-52
2023/06/08 09:53:26;;;;;;;;;;;;;;;27.22;54.23;95081.94;4976020;28;1058;-52
2023/06/08 09:55:53;;;;;;;;;;;;;;;27.41;53.04;95074.09;4976049;28;1041;-52
2023/06/08 09:58:24;;;;;;;;;;;;;;;27.19;50.98;95071.47;4975436;28;1995;-53
2023/06/08 10:00:53;;;;;;;;;;;;;;;27.11;50.89;95079.38;4975247;28;1046;-52
2023/06/08 10:03:25;;;;;;;;;;;;;;;27.08;52.07;95070.59;4975530;28;1062;-52
2023/06/08 10:05:51;;;;;;;;;;;;;;;27.12;51.70;95070.91;4975436;28;1062;-52
2023/06/08 10:08:21;;;;;;;;;;;;;;;27.35;54.28;95064.16;4974686;28;1052;-52
2023/06/08 10:10:47;;;;;;;;;;;;;;;27.25;55.53;95061.38;4975354;28;1024;-52
2023/06/08 10:13:14;;;;;;;;;;;;;;;27.17;52.74;95062.69;4975320;28;1062;-53
2023/06/08 10:15:41;;;;;;;;;;;;;;;27.31;55.07;95054.81;4965053;28;2582;-52
2023/06/08 10:18:08;;;;;;;;;;;;;;;27.54;54.14;95047.19;4974870;28;1923;-53
2023/06/08 10:20:35;;;;;;;;;;;;;;;27.57;50.81;95052.16;4975099;28;1111;-52
2023/06/08 10:23:01;;;;;;;;;;;;;;;27.25;51.21;95051.22;4975260;28;1110;-52
2023/06/08 10:25:30;;;;;;;;;;;;;;;27.22;51.35;95048.16;4974885;28;1364;-53
2023/06/08 10:28:03;;;;;;;;;;;;;;;27.23;54.75;95033.34;4975237;28;959;-52
2023/06/08 10:30:42;;;;;;;;;;;;;;;27.39;52.59;95037.81;4975004;28;964;-52
2023/06/08 10:33:08;;;;;;;;;;;;;;;27.39;48.78;95029.56;4975345;28;998;-53
2023/06/08 10:35:34;;;;;;;;;;;;;;;27.15;49.59;95023.72;4975465;28;920;-52
2023/06/08 10:38:07;;;;;;;;;;;;;;;27.24;48.85;95019.38;4975096;28;1906;-52
2023/06/08 10:40:40;;;;;;;;;;;;;;;27.50;49.45;95011.22;4974986;28;998;-52
2023/06/08 10:43:08;;;;;;;;;;;;;;;27.52;49.04;95016.44;4973503;28;2694;-53
2023/06/08 10:45:40;;;;;;;;;;;;;;;27.36;51.32;94999.94;4974570;28;1066;-53
2023/06/08 10:48:07;;;;;;;;;;;;;;;27.50;52.45;95007.66;4975042;28;1021;-53
2023/06/08 10:50:37;;;;;;;;;;;;;;;27.57;51.61;95000.81;4975178;28;1039;-53
2023/06/08 10:53:04;;;;;;;;;;;;;;;27.71;51.02;95003.84;4974757;28;1110;-53
2023/06/08 10:55:30;;;;;;;;;;;;;;;27.72;48.91;95001.94;4974692;28;998;-53
2023/06/08 10:58:06;;;;;;;;;;;;;;;27.61;52.12;94995.59;4974724;28;1985;-54
2023/06/08 11:00:33;;;;;;;;;;;;;;;27.76;53.39;94992.88;4974744;28;984;-55
2023/06/08 11:03:00;;;;;;;;;;;;;;;27.42;50.81;94985.13;4974519;28;1121;-55
2023/06/08 11:05:29;;;;;;;;;;;;;;;27.62;52.85;94987.09;4974739;28;972;-53
2023/06/08 11:07:56;;;;;;;;;;;;;;;27.74;51.90;94994.25;4974606;28;948;-53
2023/06/08 11:10:22;;;;;;;;;;;;;;;27.66;50.45;94987.38;4974304;28;2008;-53
2023/06/08 11:12:49;;;;;;;;;;;;;;;27.94;51.07;94982.47;4974409;28;1086;-53
2023/06/08 11:15:16;;;;;;;;;;;;;;;28.05;52.90;94964.88;4974509;28;952;-53
2023/06/08 11:17:43;;;;;;;;;;;;;;;28.21;51.83;94972.00;4973778;28;2517;-53
2023/06/08 11:20:10;;;;;;;;;;;;;;;28.02;49.66;94973.66;4973297;28;2937;-53
2023/06/08 11:22:39;;;;;;;;;;;;;;;27.83;52.14;94965.97;4973835;28;2596;-53
2023/06/08 11:25:08;;;;;;;;;;;;;;;27.74;51.55;94964.84;4973275;28;2936;-53
2023/06/08 11:27:44;;;;;;;;;;;;;;;27.89;53.18;94955.81;4974520;28;950;-53
2023/06/08 11:30:19;;;;;;;;;;;;;;;27.97;52.44;94954.44;4973681;28;2562;-53
2023/06/08 11:32:51;;;;;;;;;;;;;;;27.78;50.91;94962.38;4973372;28;2936;-53
2023/06/08 11:35:18;;;;;;;;;;;;;;;28.03;51.04;94964.34;4957390;28;1039;-53
2023/06/08 11:37:45;;;;;;;;;;;;;;;28.03;50.00;94947.84;4972484;28;2546;-53
2023/06/08 11:40:14;;;;;;;;;;;;;;;28.29;52.11;94947.81;4974127;28;1055;-53
2023/06/08 11:42:41;;;;;;;;;;;;;;;28.31;50.87;94942.88;4974535;28;1030;-53
2023/06/08 11:45:08;;;;;;;;;;;;;;;28.14;49.72;94943.97;4974335;28;1049;-53
2023/06/08 11:47:34;;;;;;;;;;;;;;;28.28;50.81;94935.16;4974616;28;976;-53
2023/06/08 11:50:01;;;;;;;;;;;;;;;28.49;50.25;94925.75;4974210;28;1014;-53
2023/06/08 11:52:30;;;;;;;;;;;;;;;28.68;49.33;94928.75;4977712;28;976;-53
2023/06/08 11:55:01;;;;;;;;;;;;;;;28.71;52.44;94917.19;4977936;28;1051;-53
2023/06/08 11:57:40;;;;;;;;;;;;;;;28.77;51.31;94920.75;4977900;28;1906;-53
2023/06/08 12:00:09;;;;;;;;;;;;;;;28.80;50.88;94918.25;4976437;28;2555;-53
2023/06/08 12:02:36;;;;;;;;;;;;;;;28.56;49.55;94923.56;4977459;28;1054;-52
2023/06/08 12:05:03;;;;;;;;;;;;;;;28.39;48.29;94910.13;4977906;28;1050;-53
2023/06/08 12:07:29;;;;;;;;;;;;;;;28.22;48.42;94907.69;4977896;28;1045;-53
2023/06/08 12:09:57;;;;;;;;;;;;;;;28.11;48.94;94905.25;4977687;28;1043;-53
2023/06/08 12:12:28;;;;;;;;;;;;;;;28.37;47.54;94904.06;4977501;28;1063;-53
2023/06/08 12:14:54;;;;;;;;;;;;;;;28.53;47.57;94902.16;4977571;28;1050;-53
2023/06/08 12:17:27;;;;;;;;;;;;;;;28.43;47.59;94893.88;4977427;28;1043;-53
2023/06/08 12:19:54;;;;;;;;;;;;;;;28.57;47.29;94897.72;4977481;28;1079;-53
2023/06/08 12:22:21;;;;;;;;;;;;;;;28.36;48.86;94891.44;4977355;28;1003;-53
2023/06/08 12:24:47;;;;;;;;;;;;;;;28.64;48.28;94893.84;4977372;28;1325;-53
2023/06/08 12:27:13;;;;;;;;;;;;;;;28.55;45.60;94897.19;4977240;28;1118;-53
2023/06/08 12:29:40;;;;;;;;;;;;;;;28.62;48.20;94885.88;4977572;28;1038;-53
2023/06/08 12:32:09;;;;;;;;;;;;;;;28.91;47.14;94880.53;4977174;28;1067;-53
2023/06/08 12:34:35;;;;;;;;;;;;;;;29.00;48.92;94878.78;4977416;28;1030;-53
2023/06/08 12:37:01;;;;;;;;;;;;;;;28.99;44.87;94887.34;4977182;28;1150;-53
2023/06/08 12:39:27;;;;;;;;;;;;;;;28.84;45.09;94881.91;4977157;28;1899;-53
2023/06/08 12:41:53;;;;;;;;;;;;;;;28.87;44.26;94882.16;4977414;28;971;-53
2023/06/08 12:44:19;;;;;;;;;;;;;;;28.87;48.83;94875.84;4976860;28;1121;-53
2023/06/08 12:46:45;;;;;;;;;;;;;;;29.09;48.55;94872.72;4975630;28;2800;-53
2023/06/08 12:49:11;;;;;;;;;;;;;;;29.13;47.95;94871.06;4976802;28;1085;-53
2023/06/08 12:51:37;;;;;;;;;;;;;;;29.10;47.39;94880.69;4977202;28;959;-53
2023/06/08 12:54:03;;;;;;;;;;;;;;;28.97;48.32;94882.13;4977208;28;978;-53
2023/06/08 12:56:29;;;;;;;;;;;;;;;28.45;49.71;94866.94;4976983;28;986;-53
2023/06/08 12:58:55;;;;;;;;;;;;;;;28.14;49.73;94869.78;4959661;28;1910;-53